createdAt,value
2017-01-30T09:36:49.571Z,1003.11
2017-01-30T09:37:30.095Z,1003.08
2017-01-30T09:38:10.622Z,1003.08
2017-01-30T09:38:51.143Z,1003.07
2017-01-30T09:39:31.687Z,1003.08
2017-01-30T09:40:12.217Z,1003.09
2017-01-30T09:40:52.738Z,1003.04
2017-01-30T09:41:33.262Z,1003.13
2017-01-30T09:42:13.814Z,1003.09
2017-01-30T09:42:54.363Z,1003.07
2017-01-30T09:43:34.921Z,1003.12
2017-01-30T09:44:15.435Z,1003.11
2017-01-30T09:44:55.964Z,1003.14
2017-01-30T09:45:36.490Z,1003.04
2017-01-30T09:46:17.017Z,1003.08
2017-01-30T09:46:57.530Z,1003.13
2017-01-30T09:47:38.056Z,1003.11
2017-01-30T09:48:18.581Z,1003.05
2017-01-30T09:48:59.113Z,1003.15
2017-01-30T09:49:39.668Z,1003.09
2017-01-30T09:50:20.189Z,1003.1
2017-01-30T09:51:00.726Z,1003.09
2017-01-30T09:51:41.990Z,1003.1
2017-01-30T09:52:22.544Z,1003.08
2017-01-30T09:53:03.062Z,1003.08
2017-01-30T09:53:43.586Z,1003.06
2017-01-30T09:54:24.110Z,1003.07
2017-01-30T09:55:04.642Z,1003.06
2017-01-30T09:55:45.160Z,1003.1
2017-01-30T09:56:25.684Z,1003.09
2017-01-30T09:57:06.209Z,1003.05
2017-01-30T09:57:47.931Z,1003.11
2017-01-30T09:58:27.261Z,1003.08
2017-01-30T09:59:07.788Z,1003.12
2017-01-30T09:59:48.305Z,1003.11
2017-01-30T10:00:28.824Z,1003.1
2017-01-30T10:01:09.361Z,1003.09
2017-01-30T10:01:49.893Z,1003.06
2017-01-30T10:02:30.419Z,1003.1
2017-01-30T10:03:10.955Z,1003.02
2017-01-30T10:03:51.473Z,1003.06
2017-01-30T10:04:32.008Z,1003.03
2017-01-30T10:05:12.545Z,1003
2017-01-30T10:05:53.056Z,1003.04
2017-01-30T10:06:33.604Z,1003.02
2017-01-30T10:07:14.132Z,1003.01
2017-01-30T10:07:54.675Z,1003.01
2017-01-30T10:08:35.205Z,1003
2017-01-30T10:09:15.750Z,1003
2017-01-30T10:09:56.294Z,1003.01
2017-01-30T10:10:36.823Z,1002.98
2017-01-30T10:11:17.358Z,1002.96
2017-01-30T10:11:57.900Z,1002.99
2017-01-30T10:12:38.411Z,1002.96
2017-01-30T10:13:18.949Z,1003.01
2017-01-30T10:13:59.503Z,1002.98
2017-01-30T10:14:40.008Z,1003
2017-01-30T10:15:20.523Z,1002.97
2017-01-30T10:16:01.060Z,1002.96
2017-01-30T10:16:41.604Z,1002.92
2017-01-30T10:17:22.102Z,1002.99
2017-01-30T10:18:02.615Z,1002.95
2017-01-30T10:18:43.127Z,1002.97
2017-01-30T10:19:23.650Z,1002.95
2017-01-30T10:20:04.171Z,1002.92
2017-01-30T10:20:44.712Z,1002.92
2017-01-30T10:21:25.247Z,1002.89
2017-01-30T10:22:05.768Z,1002.95
2017-01-30T10:22:46.323Z,1002.89
2017-01-30T10:23:26.843Z,1002.92
2017-01-30T10:24:07.362Z,1002.89
2017-01-30T10:24:47.906Z,1002.93
2017-01-30T10:25:28.433Z,1002.92
2017-01-30T10:26:08.945Z,1002.91
2017-01-30T10:26:49.467Z,1002.93
2017-01-30T10:27:30.005Z,1002.9
2017-01-30T10:28:10.529Z,1002.92
2017-01-30T10:28:51.074Z,1002.91
2017-01-30T10:29:31.595Z,1002.91
2017-01-30T10:30:12.143Z,1002.91
2017-01-30T10:30:52.661Z,1002.89
2017-01-30T10:31:33.182Z,1002.91
2017-01-30T10:32:13.700Z,1002.87
2017-01-30T10:32:54.219Z,1002.88
2017-01-30T10:33:34.756Z,1002.89
2017-01-30T10:36:50.768Z,1002.86
2017-01-30T10:37:31.299Z,1002.83
2017-01-30T10:38:11.835Z,1002.84
2017-01-30T10:38:52.396Z,1002.86
2017-01-30T10:39:32.937Z,1002.82
2017-01-30T10:40:13.456Z,1002.83
2017-01-30T10:40:53.982Z,1002.82
2017-01-30T10:41:34.526Z,1002.81
2017-01-30T10:42:15.091Z,1002.8
2017-01-30T10:42:55.615Z,1002.78
2017-01-30T10:43:36.138Z,1002.78
2017-01-30T10:44:16.661Z,1002.76
2017-01-30T10:44:57.197Z,1002.79
2017-01-30T10:45:37.728Z,1002.81
2017-01-30T10:46:18.269Z,1002.77
2017-01-30T10:46:58.805Z,1002.73
2017-01-30T10:47:39.363Z,1002.73
2017-01-30T10:48:19.896Z,1002.76
2017-01-30T10:49:00.416Z,1002.74
2017-01-30T10:49:40.946Z,1002.75
2017-01-30T10:50:21.490Z,1002.73
2017-01-30T10:51:02.012Z,1002.75
2017-01-30T10:51:42.523Z,1002.71
2017-01-30T10:52:23.065Z,1002.71
2017-01-30T10:53:03.595Z,1002.72
2017-01-30T10:53:44.118Z,1002.73
2017-01-30T10:54:24.640Z,1002.7
2017-01-30T10:55:05.182Z,1002.72
2017-01-30T10:55:45.716Z,1002.65
2017-01-30T10:56:26.229Z,1002.65
2017-01-30T10:57:06.763Z,1002.69
2017-01-30T10:57:47.284Z,1002.64
2017-01-30T10:58:27.798Z,1002.65
2017-01-30T10:59:08.333Z,1002.65
2017-01-30T10:59:48.868Z,1002.67
2017-01-30T11:00:29.374Z,1002.65
2017-01-30T11:01:09.911Z,1002.61
2017-01-30T11:01:50.430Z,1002.59
2017-01-30T11:02:30.963Z,1002.63
2017-01-30T11:03:11.517Z,1002.58
2017-01-30T11:03:52.064Z,1002.6
2017-01-30T11:04:32.603Z,1002.63
2017-01-30T11:05:13.155Z,1002.64
2017-01-30T11:05:53.695Z,1002.61
2017-01-30T11:06:34.225Z,1002.6
2017-01-30T11:07:14.726Z,1002.57
2017-01-30T11:07:55.252Z,1002.57
2017-01-30T11:08:35.824Z,1002.59
2017-01-30T11:09:16.330Z,1002.56
2017-01-30T11:09:56.840Z,1002.56
2017-01-30T11:10:37.400Z,1002.56
2017-01-30T11:11:17.932Z,1002.5
2017-01-30T11:11:58.455Z,1002.51
2017-01-30T11:12:38.984Z,1002.5
2017-01-30T11:13:19.528Z,1002.43
2017-01-30T11:14:00.043Z,1002.41
2017-01-30T11:14:40.592Z,1002.44
2017-01-30T11:15:21.130Z,1002.39
2017-01-30T11:16:01.661Z,1002.33
2017-01-30T11:16:42.243Z,1002.34
2017-01-30T11:17:22.769Z,1002.38
2017-01-30T11:18:03.294Z,1002.34
2017-01-30T11:18:43.818Z,1002.33
2017-01-30T11:19:24.346Z,1002.35
2017-01-30T11:20:04.884Z,1002.29
2017-01-30T11:20:45.413Z,1002.38
2017-01-30T11:21:25.948Z,1002.41
2017-01-30T11:22:06.481Z,1002.34
2017-01-30T11:22:47.024Z,1002.29
2017-01-30T11:23:27.583Z,1002.32
2017-01-30T11:24:08.128Z,1002.31
2017-01-30T11:24:48.651Z,1002.34
2017-01-30T11:25:29.198Z,1002.29
2017-01-30T11:26:09.731Z,1002.24
2017-01-30T11:26:50.294Z,1002.25
2017-01-30T11:27:30.852Z,1002.25
2017-01-30T11:28:11.382Z,1002.22
2017-01-30T11:28:51.899Z,1002.26
2017-01-30T11:29:32.444Z,1002.25
2017-01-30T11:30:12.968Z,1002.27
2017-01-30T11:30:53.499Z,1002.28
2017-01-30T11:31:34.063Z,1002.26
2017-01-30T11:32:14.617Z,1002.27
2017-01-30T11:32:55.170Z,1002.27
2017-01-30T11:33:35.713Z,1002.26
2017-01-30T11:34:16.248Z,1002.28
2017-01-30T11:34:56.783Z,1002.28
2017-01-30T11:35:37.333Z,1002.3
2017-01-30T11:36:17.859Z,1002.27
2017-01-30T11:36:58.411Z,1002.23
2017-01-30T11:37:38.962Z,1002.23
2017-01-30T11:38:19.504Z,1002.25
2017-01-30T11:39:00.059Z,1002.24
2017-01-30T11:39:40.601Z,1002.25
2017-01-30T11:40:21.127Z,1002.19
2017-01-30T11:41:01.708Z,1002.2
2017-01-30T11:41:42.256Z,1002.21
2017-01-30T11:42:22.792Z,1002.21
2017-01-30T11:43:03.323Z,1002.21
2017-01-30T11:43:43.843Z,1002.21
2017-01-30T11:44:24.363Z,1002.2
2017-01-30T11:45:04.897Z,1002.22
2017-01-30T11:45:45.422Z,1002.18
2017-01-30T11:46:25.949Z,1002.21
2017-01-30T11:47:06.501Z,1002.2
2017-01-30T11:47:47.028Z,1002.21
2017-01-30T11:48:27.542Z,1002.18
2017-01-30T11:49:08.085Z,1002.22
2017-01-30T11:49:48.609Z,1002.23
2017-01-30T11:50:29.144Z,1002.22
2017-01-30T11:51:09.697Z,1002.27
2017-01-30T11:51:50.227Z,1002.2
2017-01-30T11:52:30.760Z,1002.24
2017-01-30T11:53:11.303Z,1002.23
2017-01-30T11:53:51.838Z,1002.21
2017-01-30T11:54:32.373Z,1002.19
2017-01-30T11:55:12.895Z,1002.21
2017-01-30T11:55:53.410Z,1002.18
2017-01-30T11:56:33.956Z,1002.18
2017-01-30T11:57:14.521Z,1002.15
2017-01-30T11:57:55.077Z,1002.11
2017-01-30T11:58:35.627Z,1002.11
2017-01-30T11:59:16.176Z,1002.11
2017-01-30T11:59:56.741Z,1002.11
2017-01-30T12:00:37.263Z,1002.07
2017-01-30T12:01:17.822Z,1002.09
2017-01-30T12:01:58.351Z,1002.03
2017-01-30T12:02:38.918Z,1002.08
2017-01-30T12:03:19.445Z,1002.08
2017-01-30T12:03:59.998Z,1002.02
2017-01-30T12:04:40.536Z,1001.99
2017-01-30T12:05:21.043Z,1002.01
2017-01-30T12:06:01.553Z,1001.99
2017-01-30T12:06:42.092Z,1001.98
2017-01-30T12:07:22.609Z,1001.95
2017-01-30T12:08:03.132Z,1001.96
2017-01-30T12:08:43.674Z,1001.98
2017-01-30T12:09:24.225Z,1002
2017-01-30T12:10:04.742Z,1001.98
2017-01-30T12:10:45.273Z,1001.94
2017-01-30T12:11:25.810Z,1001.94
2017-01-30T12:12:06.376Z,1001.97
2017-01-30T12:12:46.911Z,1001.97
2017-01-30T12:13:27.432Z,1001.99
2017-01-30T12:14:07.962Z,1001.99
2017-01-30T12:14:48.493Z,1001.91
2017-01-30T12:15:29.045Z,1001.93
2017-01-30T12:16:09.595Z,1001.91
2017-01-30T12:16:50.135Z,1001.86
2017-01-30T12:17:30.640Z,1001.87
2017-01-30T12:18:11.171Z,1001.86
2017-01-30T12:18:51.701Z,1001.83
2017-01-30T12:19:32.238Z,1001.84
2017-01-30T12:20:12.760Z,1001.82
2017-01-30T12:20:53.296Z,1001.84
2017-01-30T12:21:33.833Z,1001.86
2017-01-30T12:22:14.360Z,1001.84
2017-01-30T12:22:54.905Z,1001.82
2017-01-30T12:23:35.443Z,1001.81
2017-01-30T12:24:15.981Z,1001.82
2017-01-30T12:24:56.506Z,1001.85
2017-01-30T12:25:37.022Z,1001.84
2017-01-30T12:26:17.558Z,1001.85
2017-01-30T12:26:58.086Z,1001.85
2017-01-30T12:27:38.623Z,1001.83
2017-01-30T12:28:19.143Z,1001.84
2017-01-30T12:28:59.699Z,1001.83
2017-01-30T12:29:40.211Z,1001.85
2017-01-30T12:30:20.751Z,1001.78
2017-01-30T12:31:01.268Z,1001.8
2017-01-30T12:31:41.781Z,1001.78
2017-01-30T12:32:22.314Z,1001.82
2017-01-30T12:33:02.852Z,1001.79
2017-01-30T12:33:43.373Z,1001.76
2017-01-30T12:34:23.911Z,1001.72
2017-01-30T12:35:04.464Z,1001.73
2017-01-30T12:35:44.998Z,1001.77
2017-01-30T12:36:25.577Z,1001.77
2017-01-30T12:37:06.103Z,1001.74
2017-01-30T12:37:46.624Z,1001.77
2017-01-30T12:38:27.155Z,1001.72
2017-01-30T12:39:07.671Z,1001.75
2017-01-30T12:39:48.228Z,1001.74
2017-01-30T12:40:28.757Z,1001.74
2017-01-30T12:41:09.286Z,1001.7
2017-01-30T12:41:49.810Z,1001.71
2017-01-30T12:42:30.360Z,1001.77
2017-01-30T12:43:10.876Z,1001.72
2017-01-30T12:43:51.404Z,1001.72
2017-01-30T12:44:31.967Z,1001.72
2017-01-30T12:45:12.491Z,1001.73
2017-01-30T12:45:53.015Z,1001.69
2017-01-30T12:46:33.585Z,1001.64
2017-01-30T12:47:14.135Z,1001.7
2017-01-30T12:47:54.650Z,1001.67
2017-01-30T12:48:35.206Z,1001.63
2017-01-30T12:49:15.773Z,1001.66
2017-01-30T12:49:56.343Z,1001.64
2017-01-30T12:50:36.867Z,1001.64
2017-01-30T12:51:17.389Z,1001.65
2017-01-30T12:51:57.966Z,1001.64
2017-01-30T12:52:38.515Z,1001.64
2017-01-30T12:53:19.075Z,1001.6
2017-01-30T12:53:59.598Z,1001.62
2017-01-30T12:54:40.207Z,1001.61
2017-01-30T12:55:20.739Z,1001.63
2017-01-30T12:56:01.294Z,1001.61
2017-01-30T12:56:41.830Z,1001.62
2017-01-30T12:57:22.375Z,1001.6
2017-01-30T12:58:02.928Z,1001.61
2017-01-30T12:58:43.465Z,1001.61
2017-01-30T12:59:24.023Z,1001.59
2017-01-30T13:00:04.574Z,1001.6
2017-01-30T13:00:45.098Z,1001.55
2017-01-30T13:01:25.626Z,1001.58
2017-01-30T13:02:06.182Z,1001.57
2017-01-30T13:02:46.702Z,1001.52
2017-01-30T13:03:27.262Z,1001.54
2017-01-30T13:04:07.812Z,1001.53
2017-01-30T13:04:48.400Z,1001.53
2017-01-30T13:05:28.939Z,1001.55
2017-01-30T13:06:09.539Z,1001.54
2017-01-30T13:06:50.082Z,1001.48
2017-01-30T13:07:30.627Z,1001.47
2017-01-30T13:08:11.157Z,1001.46
2017-01-30T13:08:51.691Z,1001.47
2017-01-30T13:09:32.239Z,1001.41
2017-01-30T13:10:12.767Z,1001.4
2017-01-30T13:10:53.298Z,1001.41
2017-01-30T13:11:33.823Z,1001.4
2017-01-30T13:12:14.368Z,1001.39
2017-01-30T13:12:54.904Z,1001.37
2017-01-30T13:13:35.434Z,1001.34
2017-01-30T13:14:15.984Z,1001.33
2017-01-30T13:14:56.503Z,1001.4
2017-01-30T13:15:37.021Z,1001.36
2017-01-30T13:16:17.558Z,1001.33
2017-01-30T13:16:58.103Z,1001.36
2017-01-30T13:17:38.660Z,1001.37
2017-01-30T13:18:19.184Z,1001.33
2017-01-30T13:18:59.739Z,1001.38
2017-01-30T13:19:40.278Z,1001.33
2017-01-30T13:20:20.818Z,1001.3
2017-01-30T13:21:01.355Z,1001.25
2017-01-30T13:21:41.896Z,1001.27
2017-01-30T13:22:22.422Z,1001.3
2017-01-30T13:23:02.942Z,1001.27
2017-01-30T13:23:43.459Z,1001.28
2017-01-30T13:24:23.992Z,1001.26
2017-01-30T13:25:04.520Z,1001.32
2017-01-30T13:25:45.080Z,1001.24
2017-01-30T13:26:25.612Z,1001.3
2017-01-30T13:27:06.137Z,1001.31
2017-01-30T13:27:46.662Z,1001.29
2017-01-30T13:28:27.201Z,1001.27
2017-01-30T13:29:07.738Z,1001.24
2017-01-30T13:29:48.293Z,1001.23
2017-01-30T13:30:28.816Z,1001.21
2017-01-30T13:31:09.354Z,1001.22
2017-01-30T13:31:49.937Z,1001.21
2017-01-30T13:32:30.488Z,1001.19
2017-01-30T13:33:11.051Z,1001.23
2017-01-30T13:33:51.599Z,1001.19
2017-01-30T13:34:32.163Z,1001.22
2017-01-30T13:35:12.706Z,1001.18
2017-01-30T13:35:53.243Z,1001.23
2017-01-30T13:36:33.764Z,1001.2
2017-01-30T13:37:14.299Z,1001.16
2017-01-30T13:37:54.819Z,1001.18
2017-01-30T13:38:35.333Z,1001.16
2017-01-30T13:39:15.878Z,1001.17
2017-01-30T13:39:56.406Z,1001.15
2017-01-30T13:40:36.938Z,1001.13
2017-01-30T13:41:17.450Z,1001.15
2017-01-30T13:41:57.984Z,1001.14
2017-01-30T13:42:38.497Z,1001.12
2017-01-30T13:43:19.088Z,1001.12
2017-01-30T13:43:59.611Z,1001.11
2017-01-30T13:44:40.182Z,1001.11
2017-01-30T13:45:20.726Z,1001.1
2017-01-30T13:46:01.289Z,1001.14
2017-01-30T13:46:41.830Z,1001.09
2017-01-30T13:47:22.354Z,1001.14
2017-01-30T13:48:02.901Z,1001.12
2017-01-30T13:48:43.505Z,1001.13
2017-01-30T13:49:24.132Z,1001.13
2017-01-30T13:50:04.669Z,1001.11
2017-01-30T13:50:45.244Z,1001.13
2017-01-30T13:51:25.834Z,1001.13
2017-01-30T13:52:06.353Z,1001.17
2017-01-30T13:52:46.931Z,1001.13
2017-01-30T13:53:27.472Z,1001.12
2017-01-30T13:54:07.999Z,1001.13
2017-01-30T13:54:48.596Z,1001.16
2017-01-30T13:55:29.181Z,1001.1
2017-01-30T13:56:09.738Z,1001.15
2017-01-30T13:56:50.229Z,1001.16
2017-01-30T13:57:30.769Z,1001.11
2017-01-30T13:58:11.283Z,1001.17
2017-01-30T13:58:51.821Z,1001.15
2017-01-30T13:59:32.354Z,1001.14
2017-01-30T14:00:12.891Z,1001.14
2017-01-30T14:00:53.440Z,1001.12
2017-01-30T14:01:33.957Z,1001.14
2017-01-30T14:02:14.504Z,1001.15
2017-01-30T14:02:55.051Z,1001.17
2017-01-30T14:03:35.605Z,1001.18
2017-01-30T14:04:16.155Z,1001.13
2017-01-30T14:04:56.716Z,1001.17
2017-01-30T14:05:37.291Z,1001.21
2017-01-30T14:06:17.842Z,1001.2
2017-01-30T14:06:58.390Z,1001.17
2017-01-30T14:07:38.941Z,1001.17
2017-01-30T14:08:19.545Z,1001.16
2017-01-30T14:09:00.077Z,1001.16
2017-01-30T14:09:40.607Z,1001.18
2017-01-30T14:10:21.137Z,1001.17
2017-01-30T14:11:01.671Z,1001.19
2017-01-30T14:11:42.186Z,1001.18
2017-01-30T14:12:22.744Z,1001.22
2017-01-30T14:13:03.313Z,1001.21
2017-01-30T14:13:43.913Z,1001.19
2017-01-30T14:14:24.443Z,1001.18
2017-01-30T14:15:04.984Z,1001.16
2017-01-30T14:15:45.551Z,1001.15
2017-01-30T14:16:26.096Z,1001.16
2017-01-30T14:17:06.629Z,1001.19
2017-01-30T14:17:47.150Z,1001.18
2017-01-30T14:18:27.677Z,1001.18
2017-01-30T14:19:08.303Z,1001.2
2017-01-30T14:19:48.809Z,1001.2
2017-01-30T14:20:29.387Z,1001.18
2017-01-30T14:21:09.968Z,1001.21
2017-01-30T14:21:50.495Z,1001.21
2017-01-30T14:22:31.030Z,1001.2
2017-01-30T14:23:11.555Z,1001.23
2017-01-30T14:23:52.109Z,1001.19
2017-01-30T14:24:32.608Z,1001.22
2017-01-30T14:25:13.143Z,1001.21
2017-01-30T14:25:53.670Z,1001.25
2017-01-30T14:26:34.219Z,1001.22
2017-01-30T14:27:14.734Z,1001.24
2017-01-30T14:27:55.261Z,1001.18
2017-01-30T14:28:35.792Z,1001.25
2017-01-30T14:29:16.327Z,1001.24
2017-01-30T14:29:56.841Z,1001.23
2017-01-30T14:30:37.360Z,1001.29
2017-01-30T14:31:17.898Z,1001.29
2017-01-30T14:31:58.415Z,1001.26
2017-01-30T14:32:39.009Z,1001.24
2017-01-30T14:33:19.521Z,1001.3
2017-01-30T14:34:00.037Z,1001.24
2017-01-30T14:34:40.584Z,1001.22
2017-01-30T14:35:21.107Z,1001.25
2017-01-30T14:36:01.653Z,1001.26
2017-01-30T14:36:42.167Z,1001.21
2017-01-30T14:37:22.716Z,1001.19
2017-01-30T14:38:03.254Z,1001.22
2017-01-30T14:38:43.804Z,1001.22
2017-01-30T14:39:24.350Z,1001.25
2017-01-30T14:40:04.908Z,1001.26
2017-01-30T14:40:45.438Z,1001.25
2017-01-30T14:41:25.990Z,1001.28
2017-01-30T14:42:06.505Z,1001.27
2017-01-30T14:42:47.035Z,1001.23
2017-01-30T14:43:27.553Z,1001.25
2017-01-30T14:44:08.067Z,1001.24
2017-01-30T14:44:48.597Z,1001.27
2017-01-30T14:45:29.132Z,1001.25
2017-01-30T14:46:09.694Z,1001.26
2017-01-30T14:46:50.237Z,1001.24
2017-01-30T14:47:30.787Z,1001.29
2017-01-30T14:48:11.313Z,1001.27
2017-01-30T14:48:51.851Z,1001.26
2017-01-30T14:49:32.422Z,1001.27
2017-01-30T14:50:12.950Z,1001.28
2017-01-30T14:50:53.494Z,1001.3
2017-01-30T14:51:34.015Z,1001.3
2017-01-30T14:52:14.581Z,1001.31
2017-01-30T14:52:55.116Z,1001.3
2017-01-30T14:53:35.643Z,1001.3
2017-01-30T14:54:16.144Z,1001.27
2017-01-30T14:54:56.639Z,1001.28
2017-01-30T14:55:37.140Z,1001.26
2017-01-30T14:56:17.663Z,1001.27
2017-01-30T14:56:58.198Z,1001.33
2017-01-30T14:57:38.726Z,1001.29
2017-01-30T14:58:19.247Z,1001.31
2017-01-30T14:58:59.782Z,1001.26
2017-01-30T14:59:40.319Z,1001.28
2017-01-30T15:00:20.859Z,1001.29
2017-01-30T15:01:01.387Z,1001.31
2017-01-30T15:01:41.898Z,1001.32
2017-01-30T15:02:22.429Z,1001.37
2017-01-30T15:03:02.976Z,1001.33
2017-01-30T15:03:43.518Z,1001.3
2017-01-30T15:04:24.060Z,1001.34
2017-01-30T15:05:04.611Z,1001.32
2017-01-30T15:05:45.149Z,1001.31
2017-01-30T15:06:25.680Z,1001.31
2017-01-30T15:07:06.227Z,1001.34
2017-01-30T15:07:46.753Z,1001.31
2017-01-30T15:08:27.289Z,1001.33
2017-01-30T15:09:07.819Z,1001.32
2017-01-30T15:09:48.398Z,1001.3
2017-01-30T15:10:28.920Z,1001.29
2017-01-30T15:11:09.506Z,1001.29
2017-01-30T15:11:50.043Z,1001.29
2017-01-30T15:12:30.579Z,1001.29
2017-01-30T15:13:11.111Z,1001.31
2017-01-30T15:13:51.654Z,1001.32
2017-01-30T15:14:32.302Z,1001.33
2017-01-30T15:15:12.921Z,1001.33
2017-01-30T15:15:53.472Z,1001.31
2017-01-30T15:16:34.026Z,1001.31
2017-01-30T15:17:14.582Z,1001.29
2017-01-30T15:17:55.133Z,1001.31
2017-01-30T15:18:35.705Z,1001.31
2017-01-30T15:19:16.276Z,1001.31
2017-01-30T15:19:57.023Z,1001.32
2017-01-30T15:20:37.560Z,1001.29
2017-01-30T15:21:18.193Z,1001.28
2017-01-30T15:21:58.728Z,1001.31
2017-01-30T15:22:39.372Z,1001.25
2017-01-30T15:23:19.981Z,1001.31
2017-01-30T15:24:00.538Z,1001.29
2017-01-30T15:24:41.315Z,1001.33
2017-01-30T15:25:21.897Z,1001.33
2017-01-30T15:26:02.576Z,1001.33
2017-01-30T15:26:43.112Z,1001.34
2017-01-30T15:27:23.677Z,1001.35
2017-01-30T15:28:04.199Z,1001.36
2017-01-30T15:28:44.731Z,1001.34
2017-01-30T15:29:25.270Z,1001.3
2017-01-30T15:30:05.797Z,1001.37
2017-01-30T15:30:46.339Z,1001.36
2017-01-30T15:31:26.932Z,1001.37
2017-01-30T15:32:07.424Z,1001.38
2017-01-30T15:32:47.960Z,1001.38
2017-01-30T15:33:28.496Z,1001.39
2017-01-30T15:34:09.031Z,1001.42
2017-01-30T15:34:49.567Z,1001.39
2017-01-30T15:35:30.159Z,1001.41
2017-01-30T15:36:10.659Z,1001.44
2017-01-30T15:36:51.187Z,1001.41
2017-01-30T15:37:31.734Z,1001.42
2017-01-30T15:38:12.248Z,1001.44
2017-01-30T15:38:52.771Z,1001.41
2017-01-30T15:39:33.293Z,1001.45
2017-01-30T15:40:13.829Z,1001.44
2017-01-30T15:40:54.397Z,1001.46
2017-01-30T15:41:34.912Z,1001.43
2017-01-30T15:42:15.438Z,1001.43
2017-01-30T15:42:55.966Z,1001.47
2017-01-30T15:43:36.507Z,1001.49
2017-01-30T15:44:17.066Z,1001.52
2017-01-30T15:44:57.622Z,1001.49
2017-01-30T15:45:38.193Z,1001.53
2017-01-30T15:46:18.748Z,1001.53
2017-01-30T15:46:59.276Z,1001.53
2017-01-30T15:47:39.791Z,1001.49
2017-01-30T15:48:20.305Z,1001.56
2017-01-30T15:49:00.848Z,1001.59
2017-01-30T15:49:41.381Z,1001.54
2017-01-30T15:50:21.900Z,1001.58
2017-01-30T15:51:02.430Z,1001.57
2017-01-30T15:51:42.970Z,1001.56
2017-01-30T15:52:23.493Z,1001.63
2017-01-30T15:53:04.023Z,1001.61
2017-01-30T15:53:44.564Z,1001.65
2017-01-30T15:54:25.112Z,1001.66
2017-01-30T15:55:05.609Z,1001.69
2017-01-30T15:55:46.137Z,1001.69
2017-01-30T15:56:26.669Z,1001.72
2017-01-30T15:57:07.200Z,1001.76
2017-01-30T15:57:47.724Z,1001.79
2017-01-30T15:58:28.253Z,1001.8
2017-01-30T15:59:08.808Z,1001.81
2017-01-30T15:59:49.637Z,1001.87
2017-01-30T16:00:30.996Z,1001.85
2017-01-30T16:01:11.550Z,1001.84
2017-01-30T16:01:52.201Z,1001.88
2017-01-30T16:02:32.739Z,1001.92
2017-01-30T16:03:13.336Z,1001.94
2017-01-30T16:03:53.830Z,1001.9
2017-01-30T16:04:34.349Z,1001.99
2017-01-30T16:05:14.866Z,1001.98
2017-01-30T16:05:55.472Z,1002.02
2017-01-30T16:06:35.925Z,1001.99
2017-01-30T16:07:16.497Z,1002.04
2017-01-30T16:07:56.981Z,1002.06
2017-01-30T16:08:37.497Z,1002.05
2017-01-30T16:09:18.025Z,1002.11
2017-01-30T16:09:58.568Z,1002.09
2017-01-30T16:10:39.094Z,1002.11
2017-01-30T16:11:19.640Z,1002.1
2017-01-30T16:12:00.192Z,1002.1
2017-01-30T16:12:40.725Z,1002.11
2017-01-30T16:13:21.254Z,1002.12
2017-01-30T16:14:01.795Z,1002.17
2017-01-30T16:14:42.346Z,1002.14
2017-01-30T16:15:22.899Z,1002.18
2017-01-30T16:16:03.432Z,1002.17
2017-01-30T16:16:43.984Z,1002.17
2017-01-30T16:17:24.518Z,1002.23
2017-01-30T16:18:05.056Z,1002.27
2017-01-30T16:18:45.594Z,1002.26
2017-01-30T16:19:26.125Z,1002.29
2017-01-30T16:20:06.648Z,1002.33
2017-01-30T16:20:47.200Z,1002.33
2017-01-30T16:21:27.730Z,1002.34
2017-01-30T16:22:08.249Z,1002.35
2017-01-30T16:22:48.768Z,1002.37
2017-01-30T16:23:29.292Z,1002.42
2017-01-30T16:24:09.812Z,1002.4
2017-01-30T16:24:50.352Z,1002.43
2017-01-30T16:25:30.872Z,1002.45
2017-01-30T16:26:11.404Z,1002.46
2017-01-30T16:26:51.931Z,1002.46
2017-01-30T16:27:32.480Z,1002.47
2017-01-30T16:28:13.030Z,1002.48
2017-01-30T16:28:53.591Z,1002.48
2017-01-30T16:29:34.509Z,1002.53
2017-01-30T16:30:15.080Z,1002.53
2017-01-30T16:30:55.661Z,1002.54
2017-01-30T16:31:36.189Z,1002.55
2017-01-30T16:32:17.026Z,1002.56
2017-01-30T16:32:57.534Z,1002.57
2017-01-30T16:33:38.155Z,1002.59
2017-01-30T16:34:18.883Z,1002.6
2017-01-30T16:34:59.455Z,1002.63
2017-01-30T16:35:39.979Z,1002.63
2017-01-30T16:36:20.661Z,1002.65
2017-01-30T16:37:01.235Z,1002.66
2017-01-30T16:37:41.882Z,1002.66
2017-01-30T16:38:22.494Z,1002.63
2017-01-30T16:39:03.828Z,1002.65
2017-01-30T16:39:44.401Z,1002.68
2017-01-30T16:40:24.941Z,1002.69
2017-01-30T16:41:05.540Z,1002.65
2017-01-30T16:41:46.048Z,1002.69
2017-01-30T16:42:26.591Z,1002.72
2017-01-30T16:43:07.112Z,1002.75
2017-01-30T16:43:47.776Z,1002.77
2017-01-30T16:44:28.517Z,1002.84
2017-01-30T16:45:09.053Z,1002.84
2017-01-30T16:45:49.596Z,1002.88
2017-01-30T16:46:30.129Z,1002.91
2017-01-30T16:47:10.680Z,1002.91
2017-01-30T16:47:51.215Z,1002.91
2017-01-30T16:48:31.733Z,1002.91
2017-01-30T16:49:12.254Z,1002.92
2017-01-30T16:49:52.806Z,1002.96
2017-01-30T16:50:33.331Z,1002.97
2017-01-30T16:51:13.857Z,1002.98
2017-01-30T16:51:54.398Z,1003
2017-01-30T16:52:34.917Z,1003.02
2017-01-30T16:53:15.459Z,1003
2017-01-30T16:53:55.981Z,1003.03
2017-01-30T16:54:36.532Z,1003.06
2017-01-30T16:55:17.055Z,1003.07
2017-01-30T16:55:57.591Z,1003.08
2017-01-30T16:56:38.132Z,1003.08
2017-01-30T16:57:18.650Z,1003.09
2017-01-30T16:57:59.176Z,1003.05
2017-01-30T16:58:39.683Z,1003.07
2017-01-30T16:59:20.200Z,1003.07
2017-01-30T17:00:00.726Z,1003.11
2017-01-30T17:00:41.255Z,1003.07
2017-01-30T17:01:21.796Z,1003.12
2017-01-30T17:02:02.317Z,1003.13
2017-01-30T17:02:42.846Z,1003.09
2017-01-30T17:03:23.375Z,1003.14
2017-01-30T17:04:03.899Z,1003.16
2017-01-30T17:04:44.446Z,1003.2
2017-01-30T17:05:24.987Z,1003.15
2017-01-30T17:06:05.535Z,1003.2
2017-01-30T17:06:46.070Z,1003.23
2017-01-30T17:07:26.629Z,1003.24
2017-01-30T17:08:07.164Z,1003.29
2017-01-30T17:08:47.694Z,1003.29
2017-01-30T17:09:28.241Z,1003.3
2017-01-30T17:10:08.767Z,1003.3
2017-01-30T17:10:49.333Z,1003.3
2017-01-30T17:11:29.869Z,1003.34
2017-01-30T17:12:10.701Z,1003.32
2017-01-30T17:12:51.235Z,1003.31
2017-01-30T17:13:31.765Z,1003.32
2017-01-30T17:14:12.351Z,1003.37
2017-01-30T17:14:52.882Z,1003.37
2017-01-30T17:15:33.570Z,1003.37
2017-01-30T17:16:14.134Z,1003.42
2017-01-30T17:16:54.664Z,1003.43
2017-01-30T17:17:35.186Z,1003.41
2017-01-30T17:18:15.709Z,1003.42
2017-01-30T17:18:56.240Z,1003.42
2017-01-30T17:19:36.779Z,1003.43
2017-01-30T17:20:17.315Z,1003.42
2017-01-30T17:20:57.818Z,1003.46
2017-01-30T17:21:38.402Z,1003.44
2017-01-30T17:22:18.992Z,1003.47
2017-01-30T17:22:59.562Z,1003.44
2017-01-30T17:23:40.083Z,1003.46
2017-01-30T17:24:20.640Z,1003.48
2017-01-30T17:25:01.191Z,1003.48
2017-01-30T17:25:41.750Z,1003.5
2017-01-30T17:26:22.332Z,1003.48
2017-01-30T17:27:02.965Z,1003.5
2017-01-30T17:27:43.446Z,1003.5
2017-01-30T17:28:24.018Z,1003.53
2017-01-30T17:29:04.630Z,1003.49
2017-01-30T17:29:45.188Z,1003.54
2017-01-30T17:30:25.733Z,1003.53
2017-01-30T17:31:06.320Z,1003.52
2017-01-30T17:31:46.916Z,1003.52
2017-01-30T17:32:27.478Z,1003.53
2017-01-30T17:33:08.041Z,1003.55
2017-01-30T17:33:48.622Z,1003.61
2017-01-30T17:34:29.217Z,1003.62
2017-01-30T17:35:09.833Z,1003.6
2017-01-30T17:35:50.387Z,1003.62
2017-01-30T17:36:30.951Z,1003.59
2017-01-30T17:37:11.463Z,1003.67
2017-01-30T17:37:52.047Z,1003.65
2017-01-30T17:38:32.588Z,1003.75
2017-01-30T17:39:13.164Z,1003.71
2017-01-30T17:39:53.717Z,1003.75
2017-01-30T17:40:34.278Z,1003.77
2017-01-30T17:41:14.875Z,1003.76
2017-01-30T17:41:55.455Z,1003.78
2017-01-30T17:42:36.137Z,1003.79
2017-01-30T17:43:16.706Z,1003.77
2017-01-30T17:43:57.255Z,1003.72
2017-01-30T17:44:37.777Z,1003.76
2017-01-30T17:45:18.292Z,1003.81
2017-01-30T17:45:58.833Z,1003.79
2017-01-30T17:46:39.436Z,1003.78
2017-01-30T17:47:20.035Z,1003.81
2017-01-30T17:48:00.620Z,1003.82
2017-01-30T17:48:41.319Z,1003.8
2017-01-30T17:49:21.861Z,1003.84
2017-01-30T17:50:02.382Z,1003.83
2017-01-30T17:50:42.932Z,1003.89
2017-01-30T17:51:23.480Z,1003.86